createdAt,value
2019-03-18T00:00:29.927Z,1.40
2019-03-18T00:05:34.266Z,1.50
2019-03-18T00:10:38.594Z,1.37
2019-03-18T00:15:42.955Z,1.40
2019-03-18T00:20:48.188Z,1.50
2019-03-18T00:25:52.556Z,1.50
2019-03-18T00:30:56.936Z,1.67
2019-03-18T00:36:01.285Z,1.73
2019-03-18T00:41:05.658Z,1.43
2019-03-18T00:46:10.117Z,1.67
2019-03-18T00:51:14.461Z,1.40
2019-03-18T00:56:18.805Z,1.40
2019-03-18T01:01:23.135Z,1.10
2019-03-18T01:06:27.480Z,1.20
2019-03-18T01:11:31.817Z,1.33
2019-03-18T01:16:36.163Z,1.43
2019-03-18T01:21:40.524Z,1.20
2019-03-18T01:26:45.010Z,1.10
2019-03-18T01:31:49.379Z,1.50
2019-03-18T01:36:53.768Z,1.27
2019-03-18T01:41:58.114Z,1.20
2019-03-18T01:47:02.479Z,1.50
2019-03-18T01:52:06.864Z,1.20
2019-03-18T01:57:11.215Z,1.40
2019-03-18T02:02:15.581Z,1.40
2019-03-18T02:07:19.937Z,1.50
2019-03-18T02:12:25.272Z,1.20
2019-03-18T02:17:29.643Z,1.40
2019-03-18T02:22:34.074Z,1.30
2019-03-18T02:27:38.489Z,1.20
2019-03-18T02:32:43.914Z,1.30
2019-03-18T02:37:48.255Z,1.10
2019-03-18T02:42:52.625Z,1.10
2019-03-18T02:47:56.938Z,1.00
2019-03-18T02:53:01.280Z,1.07
2019-03-18T02:58:05.658Z,1.30
2019-03-18T03:03:09.991Z,1.03
2019-03-18T03:08:14.331Z,0.80
2019-03-18T03:13:18.698Z,1.00
2019-03-18T03:18:23.036Z,1.07
2019-03-18T03:23:27.498Z,1.03
2019-03-18T03:28:31.863Z,1.13
2019-03-18T03:33:36.280Z,1.33
2019-03-18T03:38:40.650Z,1.30
2019-03-18T03:43:45.046Z,1.00
2019-03-18T03:48:49.388Z,1.03
2019-03-18T03:53:53.739Z,1.00
2019-03-18T03:58:58.238Z,0.93
2019-03-18T04:04:02.612Z,1.10
2019-03-18T04:09:07.450Z,0.90
2019-03-18T04:14:11.794Z,1.00
2019-03-18T04:19:16.251Z,1.10
2019-03-18T04:24:20.606Z,0.93
2019-03-18T04:29:24.947Z,0.80
2019-03-18T04:34:29.343Z,0.80
2019-03-18T04:39:33.819Z,0.90
2019-03-18T04:44:40.836Z,1.00
2019-03-18T04:49:45.202Z,1.00
2019-03-18T04:54:49.577Z,1.20
2019-03-18T04:59:53.928Z,1.00
2019-03-18T05:04:58.296Z,1.00
2019-03-18T05:10:02.751Z,0.90
2019-03-18T05:15:10.998Z,1.13
2019-03-18T05:20:15.301Z,1.10
2019-03-18T05:25:19.671Z,1.10
2019-03-18T05:30:24.115Z,1.17
2019-03-18T05:35:28.494Z,1.13
2019-03-18T05:40:32.820Z,1.30
2019-03-18T05:45:38.533Z,1.07
2019-03-18T05:50:42.979Z,1.30
2019-03-18T05:55:47.331Z,1.00
2019-03-18T06:00:51.682Z,1.00
2019-03-18T06:05:56.458Z,1.20
2019-03-18T06:11:01.649Z,1.40
2019-03-18T06:16:06.006Z,1.10
2019-03-18T06:21:11.487Z,1.33
2019-03-18T06:26:15.813Z,1.50
2019-03-18T06:31:20.229Z,1.40
2019-03-18T06:36:24.663Z,1.30
2019-03-18T06:41:29.028Z,1.40
2019-03-18T06:46:33.362Z,1.40
2019-03-18T06:51:37.726Z,1.37
2019-03-18T06:56:42.052Z,1.20
2019-03-18T07:01:46.404Z,1.40
2019-03-18T07:06:50.787Z,1.47
2019-03-18T07:11:55.205Z,1.50
2019-03-18T07:16:59.676Z,1.50
2019-03-18T07:22:04.057Z,1.50
2019-03-18T07:27:08.409Z,1.87
2019-03-18T07:32:12.752Z,1.73
2019-03-18T07:37:17.097Z,1.70
2019-03-18T07:42:21.584Z,1.67
2019-03-18T07:47:25.956Z,1.60
2019-03-18T07:52:30.318Z,1.50
2019-03-18T07:57:34.705Z,1.50
2019-03-18T08:02:39.038Z,1.80
2019-03-18T08:07:43.451Z,1.70
2019-03-18T08:12:47.808Z,1.60
2019-03-18T08:17:52.175Z,1.40
2019-03-18T08:22:56.638Z,1.70
2019-03-18T08:28:01.082Z,1.87
2019-03-18T08:33:05.527Z,1.47
2019-03-18T08:38:09.863Z,1.30
2019-03-18T08:43:14.218Z,1.43
2019-03-18T08:48:18.568Z,1.70
2019-03-18T08:53:22.930Z,1.83
2019-03-18T08:58:27.412Z,1.43
2019-03-18T09:03:31.777Z,1.40
2019-03-18T09:08:36.165Z,1.30
2019-03-18T09:13:40.495Z,1.50
2019-03-18T09:18:44.869Z,1.53
2019-03-18T09:23:49.263Z,1.43
2019-03-18T09:28:53.608Z,1.53
2019-03-18T09:33:58.183Z,1.30
2019-03-18T09:39:03.091Z,1.37
2019-03-18T09:44:07.421Z,1.30
2019-03-18T09:49:21.124Z,1.20
2019-03-18T09:54:17.843Z,1.20
2019-03-18T09:59:23.270Z,1.57
2019-03-18T10:04:27.737Z,1.50
2019-03-18T10:09:32.084Z,1.40
2019-03-18T10:14:36.520Z,1.40
2019-03-18T10:19:40.899Z,1.30
2019-03-18T10:24:45.502Z,1.50
2019-03-18T10:29:49.870Z,1.57
2019-03-18T10:34:54.237Z,1.40
2019-03-18T10:39:58.616Z,1.57
2019-03-18T10:45:02.971Z,1.47
2019-03-18T10:50:13.487Z,1.47
2019-03-18T10:55:17.824Z,1.40
2019-03-18T11:00:22.353Z,1.47
2019-03-18T11:05:26.776Z,1.20
2019-03-18T11:10:31.154Z,1.17
2019-03-18T11:15:35.495Z,1.30
2019-03-18T11:20:39.863Z,1.43
2019-03-18T11:25:44.206Z,1.70
2019-03-18T11:30:48.648Z,1.30
2019-03-18T11:35:55.598Z,1.30
2019-03-18T11:40:59.103Z,1.70
2019-03-18T11:46:03.499Z,1.50
2019-03-18T11:51:07.847Z,1.50
2019-03-18T11:56:12.186Z,1.40
2019-03-18T12:01:16.576Z,1.20
2019-03-18T12:06:21.005Z,1.20
2019-03-18T12:11:25.372Z,1.47
2019-03-18T12:16:29.819Z,1.67
2019-03-18T12:21:34.176Z,1.37
2019-03-18T12:26:38.543Z,1.40
2019-03-18T12:31:42.934Z,1.47
2019-03-18T12:36:47.323Z,1.23
2019-03-18T12:41:51.702Z,1.40
2019-03-18T12:46:56.032Z,0.83
2019-03-18T12:52:00.394Z,1.20
2019-03-18T12:57:05.097Z,1.30
2019-03-18T13:02:09.510Z,1.17
2019-03-18T13:07:13.854Z,1.27
2019-03-18T13:12:19.267Z,1.40
2019-03-18T13:17:23.632Z,1.20
2019-03-18T13:22:27.979Z,1.20
2019-03-18T13:27:32.311Z,1.17
2019-03-18T13:32:36.706Z,1.10
2019-03-18T13:37:41.432Z,0.90
2019-03-18T13:42:45.947Z,0.70
2019-03-18T13:47:50.508Z,1.00
2019-03-18T13:52:54.966Z,0.90
2019-03-18T13:57:59.320Z,1.00
2019-03-18T14:03:03.713Z,1.00
2019-03-18T14:08:08.117Z,1.40
2019-03-18T14:13:12.466Z,1.32
2019-03-18T14:18:16.829Z,1.30
2019-03-18T14:23:22.279Z,1.20
2019-03-18T14:28:26.648Z,1.20
2019-03-18T14:33:31.003Z,1.40
2019-03-18T14:38:38.252Z,1.13
2019-03-18T14:43:41.430Z,0.70
2019-03-18T14:48:45.867Z,0.80
2019-03-18T14:53:50.386Z,0.93
2019-03-18T14:58:54.714Z,0.87
2019-03-18T15:03:59.155Z,1.00
2019-03-18T15:09:04.032Z,1.40
2019-03-18T15:14:08.486Z,1.40
2019-03-18T15:19:12.908Z,1.50
2019-03-18T15:24:17.536Z,1.20
2019-03-18T15:29:21.923Z,1.50
2019-03-18T15:34:26.297Z,1.20
2019-03-18T15:39:30.938Z,1.50
2019-03-18T15:44:35.376Z,1.20
2019-03-18T15:49:39.760Z,1.40
2019-03-18T15:54:53.453Z,1.30
2019-03-18T15:59:50.173Z,1.50
2019-03-18T16:04:54.550Z,1.70
2019-03-18T16:09:59.002Z,1.53
2019-03-18T16:15:03.731Z,1.47
2019-03-18T16:20:13.112Z,1.87
2019-03-18T16:25:17.461Z,1.83
2019-03-18T16:30:22.524Z,1.83
2019-03-18T16:35:26.895Z,1.60
2019-03-18T16:40:31.238Z,2.00
2019-03-18T16:45:35.602Z,1.53
2019-03-18T16:50:40.111Z,1.57
2019-03-18T16:55:44.502Z,1.40
2019-03-18T17:00:48.983Z,1.47
2019-03-18T17:05:54.611Z,1.57
2019-03-18T17:11:00.049Z,1.60
2019-03-18T17:16:04.501Z,1.60
2019-03-18T17:21:09.981Z,2.00
2019-03-18T17:26:14.493Z,2.15
2019-03-18T17:31:19.029Z,1.87
2019-03-18T17:36:23.528Z,2.00
2019-03-18T17:41:27.923Z,1.47
2019-03-18T17:46:32.317Z,1.50
2019-03-18T17:51:36.666Z,1.77
2019-03-18T17:56:41.039Z,1.70
2019-03-18T18:01:45.478Z,1.87
2019-03-18T18:06:50.961Z,1.80
2019-03-18T18:11:55.326Z,2.13
2019-03-18T18:16:59.809Z,1.93
2019-03-18T18:22:04.256Z,1.80
2019-03-18T18:27:08.682Z,2.10
2019-03-18T18:32:13.075Z,1.97
2019-03-18T18:37:17.385Z,2.10
2019-03-18T18:42:21.903Z,2.00
2019-03-18T18:47:26.443Z,1.60
2019-03-18T18:52:30.981Z,1.50
2019-03-18T18:57:35.561Z,2.13
2019-03-18T19:02:40.059Z,2.13
2019-03-18T19:07:44.699Z,1.97
2019-03-18T19:12:50.460Z,2.10
2019-03-18T19:17:57.444Z,1.90
2019-03-18T19:23:03.573Z,1.97
2019-03-18T19:28:08.191Z,2.40
2019-03-18T19:33:12.727Z,2.17
2019-03-18T19:38:17.140Z,2.30
2019-03-18T19:43:21.728Z,1.90
2019-03-18T19:48:26.410Z,2.07
2019-03-18T19:53:30.770Z,2.40
2019-03-18T19:58:35.147Z,2.10
2019-03-18T20:03:40.571Z,2.13
2019-03-18T20:08:44.976Z,2.00
2019-03-18T20:13:49.369Z,2.10
2019-03-18T20:18:53.787Z,2.20
2019-03-18T20:24:01.134Z,2.50
2019-03-18T20:29:05.435Z,2.30
2019-03-18T20:34:09.979Z,2.37
2019-03-18T20:39:14.355Z,2.10
2019-03-18T20:44:18.724Z,2.43
2019-03-18T20:49:23.123Z,2.57
2019-03-18T20:54:27.614Z,2.80
2019-03-18T20:59:31.979Z,2.60
2019-03-18T21:04:36.321Z,2.80
2019-03-18T21:09:40.669Z,2.30
2019-03-18T21:14:45.062Z,2.17
2019-03-18T21:19:49.409Z,2.57
2019-03-18T21:24:53.752Z,2.40
2019-03-18T21:29:58.087Z,2.40
2019-03-18T21:35:03.775Z,2.40
2019-03-18T21:40:10.940Z,2.30
2019-03-18T21:45:23.735Z,2.23
2019-03-18T21:50:28.329Z,1.92
2019-03-18T21:55:32.767Z,2.50
2019-03-18T22:00:37.138Z,1.83
2019-03-18T22:05:41.511Z,2.13
2019-03-18T22:10:46.084Z,2.20
2019-03-18T22:15:51.277Z,1.90
2019-03-18T22:20:55.700Z,2.27
2019-03-18T22:26:00.046Z,2.13
2019-03-18T22:31:04.406Z,2.07
2019-03-18T22:36:08.770Z,2.40
2019-03-18T22:41:13.136Z,2.47
2019-03-18T22:46:17.512Z,2.33
2019-03-18T22:51:22.011Z,2.30
2019-03-18T22:56:27.328Z,2.03
2019-03-18T23:01:33.361Z,2.30
2019-03-18T23:06:37.735Z,2.20
2019-03-18T23:11:43.792Z,2.43
2019-03-18T23:16:49.228Z,2.40
2019-03-18T23:21:53.621Z,2.50
2019-03-18T23:26:57.954Z,2.60
2019-03-18T23:32:02.442Z,2.75
2019-03-18T23:37:07.877Z,2.90
2019-03-18T23:42:12.252Z,2.73
2019-03-18T23:47:16.575Z,3.00
2019-03-18T23:52:20.950Z,2.33
2019-03-18T23:57:25.323Z,2.40
